Terminal Aerodrome Forecast
Issued by NWS

Home | Current Version | Previous Version | Text Only | Print | Product List | Glossary On
Versions: 1 2 3 4 5 6 7 8 9 10 11 12 13 14 15 16 17
000
FTUS42 KMLB 011720
TAFLEE
TAF
KLEE 011720Z 0118/0218 18005KT P6SM VCSH SCT035
     FM011900 21007KT P6SM VCTS SCT035CB SCT150
     FM020000 18004KT P6SM FEW040 SCT070 BKN250
     FM020400 17003KT P6SM SCT250
     FM021300 19004KT P6SM FEW030 SCT250=

USA.gov is the U.S. government's official web portal to all federal, state and local government web resources and services.